Terminal Aerodrome Forecast
Issued by NWS Louisville, KY

Home | Current Version | Previous Version | Text Only | Print | Product List | Glossary On
Versions: 1 2 3 4 5 6 7 8 9 10 11 12 13 14 15 16 17 18 19 20 21
000
FTUS43 KLMK 172300
TAFSDF
TAF
KSDF 172320Z 1800/1906 25008KT P6SM BKN050
     FM180400 31004KT P6SM OVC050
     FM181200 32005KT P6SM BKN025
     FM181700 33007KT P6SM BKN035=

USA.gov is the U.S. government's official web portal to all federal, state and local government web resources and services.